createdAt,value
2022-11-04T00:01:39.058Z,79.90
2022-11-04T00:04:07.233Z,80.90
2022-11-04T00:06:37.707Z,79.70
2022-11-04T00:09:07.082Z,79.80
2022-11-04T00:11:52.890Z,79.90
2022-11-04T00:14:21.448Z,78.70
2022-11-04T00:17:06.833Z,79.80
2022-11-04T00:19:55.483Z,80.90
2022-11-04T00:22:42.607Z,80.00
2022-11-04T00:25:28.799Z,80.10
2022-11-04T00:28:22.040Z,80.20
2022-11-04T00:30:50.557Z,80.40
2022-11-04T00:33:26.937Z,80.20
2022-11-04T00:35:57.867Z,81.20
2022-11-04T00:38:28.865Z,81.70
2022-11-04T00:40:59.831Z,81.10
2022-11-04T00:43:28.237Z,80.80
2022-11-04T00:45:56.213Z,81.20
2022-11-04T00:48:24.597Z,80.90
2022-11-04T00:50:53.057Z,81.70
2022-11-04T00:53:21.016Z,82.00
2022-11-04T00:55:50.769Z,81.80
2022-11-04T00:58:18.694Z,81.80
2022-11-04T01:00:46.813Z,82.10
2022-11-04T01:03:15.195Z,82.20
2022-11-04T01:05:43.159Z,81.70
2022-11-04T01:08:11.559Z,82.70
2022-11-04T01:10:44.712Z,82.90
2022-11-04T01:13:14.324Z,82.70
2022-11-04T01:15:42.752Z,82.60
2022-11-04T01:18:11.081Z,81.70
2022-11-04T01:20:39.611Z,81.70
2022-11-04T01:23:08.016Z,82.50
2022-11-04T01:25:36.049Z,82.20
2022-11-04T01:28:04.667Z,81.90
2022-11-04T01:30:34.527Z,81.70
2022-11-04T01:33:02.489Z,82.40
2022-11-04T01:35:31.069Z,81.60
2022-11-04T01:38:00.254Z,81.50
2022-11-04T01:40:28.292Z,82.20
2022-11-04T01:42:56.717Z,82.20
2022-11-04T01:45:24.711Z,81.50
2022-11-04T01:48:01.341Z,81.50
2022-11-04T01:50:32.190Z,81.60
2022-11-04T01:53:06.418Z,81.50
2022-11-04T01:55:38.970Z,81.50
2022-11-04T01:58:12.545Z,81.90
2022-11-04T02:00:41.661Z,81.40
2022-11-04T02:03:16.957Z,82.40
2022-11-04T02:05:45.716Z,81.50
2022-11-04T02:08:15.624Z,81.30
2022-11-04T02:10:50.060Z,81.80
2022-11-04T02:13:17.550Z,81.40
2022-11-04T02:15:53.826Z,81.20
2022-11-04T02:18:37.855Z,81.20
2022-11-04T02:21:42.501Z,81.20
2022-11-04T02:24:45.708Z,81.20
2022-11-04T02:27:25.565Z,81.00
2022-11-04T02:30:18.980Z,81.00
2022-11-04T02:33:05.381Z,81.00
2022-11-04T02:35:43.753Z,81.80
2022-11-04T02:38:23.960Z,80.90
2022-11-04T02:41:01.269Z,82.20
2022-11-04T02:43:43.444Z,81.60
2022-11-04T02:46:19.678Z,80.80
2022-11-04T02:48:51.521Z,80.50
2022-11-04T02:51:24.514Z,81.40
2022-11-04T02:54:03.678Z,81.70
2022-11-04T02:56:34.162Z,80.60
2022-11-04T02:59:06.531Z,81.70
2022-11-04T03:01:40.396Z,81.40
2022-11-04T03:04:13.115Z,81.40
2022-11-04T03:06:44.829Z,80.20
2022-11-04T03:09:16.046Z,80.30
2022-11-04T03:11:49.247Z,81.00
2022-11-04T03:14:21.951Z,80.30
2022-11-04T03:16:55.658Z,80.80
2022-11-04T03:19:32.666Z,80.30
2022-11-04T03:22:04.946Z,80.20
2022-11-04T03:24:34.035Z,80.20
2022-11-04T03:27:05.739Z,80.70
2022-11-04T03:29:38.457Z,80.10
2022-11-04T03:32:15.337Z,81.50
2022-11-04T03:34:43.423Z,80.00
2022-11-04T03:37:12.093Z,79.70
2022-11-04T03:39:41.116Z,80.20
2022-11-04T03:42:21.504Z,79.70
2022-11-04T03:44:51.778Z,79.90
2022-11-04T03:47:23.502Z,80.00
2022-11-04T03:49:54.978Z,80.10
2022-11-04T03:52:23.385Z,79.60
2022-11-04T03:54:51.828Z,79.40
2022-11-04T03:57:32.582Z,79.10
2022-11-04T04:00:09.263Z,79.30
2022-11-04T04:03:03.133Z,79.30
2022-11-04T04:05:33.306Z,79.30
2022-11-04T04:08:13.251Z,79.20
2022-11-04T04:10:49.752Z,79.10
2022-11-04T04:13:22.956Z,79.10
2022-11-04T04:15:56.151Z,79.00
2022-11-04T04:18:32.473Z,79.80
2022-11-04T04:21:05.427Z,79.00
2022-11-04T04:23:53.970Z,79.00
2022-11-04T04:26:42.339Z,79.00
2022-11-04T04:29:11.849Z,78.90
2022-11-04T04:31:51.016Z,79.00
2022-11-04T04:34:22.883Z,78.90
2022-11-04T04:36:56.492Z,78.80
2022-11-04T04:39:46.945Z,79.10
2022-11-04T04:42:32.957Z,78.70
2022-11-04T04:45:05.416Z,79.80
2022-11-04T04:47:47.792Z,78.60
2022-11-04T04:50:20.182Z,78.70
2022-11-04T04:52:50.612Z,78.90
2022-11-04T04:55:19.569Z,79.70
2022-11-04T04:57:47.744Z,78.70
2022-11-04T05:00:17.974Z,78.60
2022-11-04T05:02:46.453Z,78.70
2022-11-04T05:07:49.709Z,78.30
2022-11-04T05:10:18.557Z,78.20
2022-11-04T05:13:04.122Z,78.30
2022-11-04T05:15:32.705Z,79.60
2022-11-04T05:18:04.722Z,79.00
2022-11-04T05:20:34.752Z,78.10
2022-11-04T05:23:02.837Z,78.00
2022-11-04T05:25:31.540Z,78.00
2022-11-04T05:28:02.254Z,79.20
2022-11-04T05:30:31.158Z,78.70
2022-11-04T05:33:03.445Z,78.30
2022-11-04T05:35:35.272Z,78.10
2022-11-04T05:38:04.272Z,78.00
2022-11-04T05:40:32.328Z,78.50
2022-11-04T05:43:01.545Z,77.80
2022-11-04T05:45:31.085Z,78.80
2022-11-04T05:48:00.832Z,78.10
2022-11-04T05:50:29.725Z,78.30
2022-11-04T05:52:59.892Z,78.20
2022-11-04T05:55:28.988Z,78.00
2022-11-04T05:57:58.720Z,78.80
2022-11-04T06:00:28.200Z,79.30
2022-11-04T06:02:57.465Z,78.20
2022-11-04T06:05:26.075Z,78.10
2022-11-04T06:07:54.690Z,77.90
2022-11-04T06:10:24.402Z,77.80
2022-11-04T06:12:52.784Z,77.80
2022-11-04T06:15:21.129Z,77.80
2022-11-04T06:17:49.053Z,77.80
2022-11-04T06:20:17.456Z,77.80
2022-11-04T06:22:45.867Z,77.70
2022-11-04T06:25:14.249Z,78.80
2022-11-04T06:27:43.620Z,77.80
2022-11-04T06:30:12.954Z,78.10
2022-11-04T06:32:43.992Z,77.80
2022-11-04T06:35:18.110Z,77.90
2022-11-04T06:37:48.200Z,77.60
2022-11-04T06:40:22.079Z,77.60
2022-11-04T06:42:51.708Z,77.70
2022-11-04T06:45:19.628Z,77.80
2022-11-04T06:47:47.938Z,78.20
2022-11-04T06:50:18.030Z,77.50
2022-11-04T06:52:49.143Z,78.60
2022-11-04T06:55:17.351Z,77.10
2022-11-04T06:57:45.416Z,77.30
2022-11-04T07:00:16.149Z,77.60
2022-11-04T07:02:44.391Z,77.60
2022-11-04T07:05:13.333Z,78.20
2022-11-04T07:07:41.825Z,78.20
2022-11-04T07:10:14.599Z,77.10
2022-11-04T07:12:43.360Z,77.20
2022-11-04T07:15:14.284Z,77.00
2022-11-04T07:17:46.654Z,77.00
2022-11-04T07:20:16.518Z,78.10
2022-11-04T07:22:51.162Z,77.60
2022-11-04T07:25:19.153Z,76.90
2022-11-04T07:27:47.550Z,78.00
2022-11-04T07:30:15.990Z,79.00
2022-11-04T07:32:45.742Z,77.30
2022-11-04T07:35:13.898Z,78.30
2022-11-04T07:37:42.498Z,77.30
2022-11-04T07:40:11.475Z,77.80
2022-11-04T07:42:39.430Z,77.70
2022-11-04T07:45:09.837Z,77.60
2022-11-04T07:47:39.444Z,77.80
2022-11-04T07:50:11.203Z,77.60
2022-11-04T07:52:39.549Z,77.70
2022-11-04T07:55:08.924Z,78.00
2022-11-04T07:57:37.529Z,77.60
2022-11-04T08:00:07.213Z,78.00
2022-11-04T08:02:35.693Z,77.20
2022-11-04T08:05:04.186Z,77.60
2022-11-04T08:07:33.770Z,76.80
2022-11-04T08:10:02.212Z,77.00
2022-11-04T08:12:32.195Z,76.90
2022-11-04T08:15:00.665Z,76.70
2022-11-04T08:17:29.494Z,77.30
2022-11-04T08:19:57.506Z,76.90
2022-11-04T08:22:30.288Z,77.70
2022-11-04T08:25:03.032Z,78.70
2022-11-04T08:27:31.116Z,76.70
2022-11-04T08:29:59.563Z,76.90
2022-11-04T08:32:27.974Z,78.50
2022-11-04T08:34:56.809Z,76.90
2022-11-04T08:37:24.780Z,77.10
2022-11-04T08:39:53.298Z,76.90
2022-11-04T08:42:23.090Z,77.60
2022-11-04T08:44:52.548Z,77.60
2022-11-04T08:47:21.112Z,77.50
2022-11-04T08:49:49.596Z,76.80
2022-11-04T08:52:17.973Z,76.70
2022-11-04T08:54:46.440Z,77.60
2022-11-04T08:57:14.700Z,77.00
2022-11-04T08:59:44.820Z,76.70
2022-11-04T09:02:15.922Z,76.60
2022-11-04T09:04:44.842Z,77.30
2022-11-04T09:07:13.375Z,76.80
2022-11-04T09:09:42.109Z,78.10
2022-11-04T09:12:11.537Z,78.40
2022-11-04T09:14:39.550Z,78.60
2022-11-04T09:17:09.387Z,77.20
2022-11-04T09:19:38.039Z,77.30
2022-11-04T09:22:06.866Z,78.00
2022-11-04T09:24:35.301Z,77.30
2022-11-04T09:27:03.778Z,78.40
2022-11-04T09:29:34.124Z,79.00
2022-11-04T09:32:02.910Z,77.50
2022-11-04T09:34:32.242Z,78.10
2022-11-04T09:37:00.765Z,78.30
2022-11-04T09:39:28.700Z,77.50
2022-11-04T09:42:15.201Z,77.60
2022-11-04T09:45:20.149Z,78.00
2022-11-04T09:47:42.347Z,78.00
2022-11-04T09:50:19.780Z,78.40
2022-11-04T09:52:52.878Z,77.80
2022-11-04T09:55:25.722Z,77.80
2022-11-04T09:57:57.826Z,77.60
2022-11-04T10:00:26.893Z,77.90
2022-11-04T10:03:06.821Z,77.40
2022-11-04T10:05:58.729Z,78.60
2022-11-04T10:08:46.023Z,77.30
2022-11-04T10:11:22.376Z,77.30
2022-11-04T10:14:14.352Z,77.30
2022-11-04T10:16:56.510Z,77.30
2022-11-04T10:19:45.821Z,77.20
2022-11-04T10:22:29.037Z,78.30
2022-11-04T10:25:11.176Z,77.90
2022-11-04T10:27:42.282Z,76.90
2022-11-04T10:30:18.348Z,77.20
2022-11-04T10:32:56.377Z,77.40
2022-11-04T10:35:33.143Z,77.30
2022-11-04T10:38:17.371Z,78.70
2022-11-04T10:40:48.846Z,77.70
2022-11-04T10:43:26.419Z,77.00
2022-11-04T10:46:07.347Z,76.70
2022-11-04T10:48:42.158Z,76.70
2022-11-04T10:51:10.638Z,76.50
2022-11-04T10:53:40.033Z,77.40
2022-11-04T10:56:18.353Z,77.30
2022-11-04T10:58:47.855Z,76.40
2022-11-04T11:01:29.761Z,76.60
2022-11-04T11:03:58.181Z,76.00
2022-11-04T11:06:29.431Z,76.90
2022-11-04T11:09:02.749Z,76.60
2022-11-04T11:11:45.253Z,75.40
2022-11-04T11:14:22.055Z,75.80
2022-11-04T11:16:49.959Z,76.40
2022-11-04T11:19:21.160Z,75.00
2022-11-04T11:21:51.213Z,74.90
2022-11-04T11:24:25.945Z,76.90
2022-11-04T11:26:56.761Z,74.80
2022-11-04T11:29:28.114Z,75.10
2022-11-04T11:31:57.510Z,75.50
2022-11-04T11:34:29.132Z,74.40
2022-11-04T11:36:58.250Z,74.30
2022-11-04T11:39:29.975Z,74.30
2022-11-04T11:42:02.399Z,74.40
2022-11-04T11:44:34.198Z,74.40
2022-11-04T11:47:05.876Z,74.20
2022-11-04T11:49:37.157Z,74.30
2022-11-04T11:52:34.415Z,74.40
2022-11-04T11:55:12.332Z,74.20
2022-11-04T12:00:52.067Z,74.00
2022-11-04T12:06:30.348Z,74.00
2022-11-04T12:09:22.697Z,74.80
2022-11-04T12:12:13.369Z,73.50
2022-11-04T12:14:55.799Z,73.50
2022-11-04T12:17:40.532Z,74.00
2022-11-04T12:20:27.622Z,74.00
2022-11-04T12:23:01.619Z,72.80
2022-11-04T12:25:36.901Z,73.80
2022-11-04T12:28:18.578Z,74.90
2022-11-04T12:30:56.859Z,72.70
2022-11-04T12:33:35.077Z,73.00
2022-11-04T12:36:24.357Z,73.10
2022-11-04T12:39:20.913Z,72.50
2022-11-04T12:45:01.922Z,72.00
2022-11-04T12:47:38.433Z,73.50
2022-11-04T12:50:29.559Z,72.40
2022-11-04T12:53:30.611Z,72.50
2022-11-04T12:56:08.249Z,71.80
2022-11-04T12:58:44.896Z,72.80
2022-11-04T13:01:18.806Z,73.20
2022-11-04T13:03:53.455Z,71.10
2022-11-04T13:06:26.979Z,72.10
2022-11-04T13:09:01.743Z,71.40
2022-11-04T13:11:33.969Z,71.30
2022-11-04T13:14:06.784Z,71.10
2022-11-04T13:16:40.583Z,71.00
2022-11-04T13:19:22.089Z,70.80
2022-11-04T13:21:50.119Z,71.80
2022-11-04T13:24:24.590Z,71.20
2022-11-04T13:26:53.648Z,72.00
2022-11-04T13:29:26.151Z,71.00
2022-11-04T13:32:03.372Z,71.40
2022-11-04T13:34:40.064Z,71.10
2022-11-04T13:37:14.928Z,71.40
2022-11-04T13:39:47.334Z,73.00
2022-11-04T13:42:51.579Z,71.70
2022-11-04T13:45:21.053Z,71.60
2022-11-04T13:47:54.468Z,71.90
2022-11-04T13:50:37.468Z,72.20
2022-11-04T13:53:07.723Z,71.10
2022-11-04T13:55:37.223Z,71.40
2022-11-04T13:58:07.717Z,71.40
2022-11-04T14:00:37.425Z,71.80
2022-11-04T14:03:39.413Z,72.70
2022-11-04T14:06:11.152Z,70.90
2022-11-04T14:09:18.291Z,72.00
2022-11-04T14:12:26.141Z,71.60
2022-11-04T14:14:57.249Z,70.50
2022-11-04T14:17:59.431Z,71.70
2022-11-04T14:20:32.099Z,70.70
2022-11-04T14:23:02.078Z,72.30
2022-11-04T14:25:37.281Z,71.10
2022-11-04T14:28:27.501Z,70.70
2022-11-04T14:30:57.605Z,70.40
2022-11-04T14:33:50.275Z,70.60
2022-11-04T14:36:33.475Z,70.50
2022-11-04T14:39:09.181Z,70.80
2022-11-04T14:41:58.995Z,70.90
2022-11-04T14:44:35.201Z,70.90
2022-11-04T14:47:15.874Z,71.20
2022-11-04T14:49:50.135Z,71.60
2022-11-04T14:52:23.810Z,71.80
2022-11-04T14:54:58.066Z,71.90
2022-11-04T14:57:26.254Z,72.10
2022-11-04T14:59:55.568Z,72.30
2022-11-04T15:02:27.183Z,72.30
2022-11-04T15:04:59.467Z,72.70
2022-11-04T15:07:35.172Z,73.10
2022-11-04T15:10:19.112Z,72.30
2022-11-04T15:12:55.505Z,73.40
2022-11-04T15:15:34.494Z,72.40
2022-11-04T15:18:07.148Z,72.70
2022-11-04T15:20:39.441Z,72.60
2022-11-04T15:23:14.310Z,72.30
2022-11-04T15:25:49.656Z,72.30
2022-11-04T15:28:21.319Z,72.30
2022-11-04T15:31:05.141Z,72.30
2022-11-04T15:33:37.094Z,72.40
2022-11-04T15:36:07.024Z,73.50
2022-11-04T15:38:35.748Z,72.30
2022-11-04T15:41:19.192Z,72.50
2022-11-04T15:43:47.754Z,73.30
2022-11-04T15:46:23.099Z,72.40
2022-11-04T15:49:06.240Z,72.40
2022-11-04T15:51:42.104Z,72.60
2022-11-04T15:54:21.971Z,72.80
2022-11-04T15:56:55.230Z,72.80
2022-11-04T15:59:26.558Z,72.80
2022-11-04T16:01:56.276Z,73.00
2022-11-04T16:04:27.737Z,73.10
2022-11-04T16:07:21.449Z,73.30
2022-11-04T16:09:51.511Z,73.60
2022-11-04T16:12:28.373Z,74.10
2022-11-04T16:14:57.557Z,73.50
2022-11-04T16:17:29.104Z,74.00
2022-11-04T16:20:00.377Z,74.90
2022-11-04T16:22:32.294Z,73.50
2022-11-04T16:25:03.744Z,74.40
2022-11-04T16:27:35.680Z,73.80
2022-11-04T16:30:10.525Z,73.90
2022-11-04T16:32:45.207Z,74.10
2022-11-04T16:35:20.268Z,74.90
2022-11-04T16:37:49.114Z,74.30
2022-11-04T16:40:17.368Z,75.30
2022-11-04T16:42:47.021Z,74.50
2022-11-04T16:45:25.588Z,75.70
2022-11-04T16:47:55.691Z,74.80
2022-11-04T16:50:25.026Z,75.20
2022-11-04T16:52:54.195Z,75.40
2022-11-04T16:55:24.428Z,74.70
2022-11-04T16:57:59.153Z,75.00
2022-11-04T17:00:28.675Z,76.10
2022-11-04T17:02:57.935Z,75.90
2022-11-04T17:05:26.485Z,75.90
2022-11-04T17:08:00.224Z,75.20
2022-11-04T17:10:36.213Z,76.00
2022-11-04T17:13:05.304Z,75.40
2022-11-04T17:15:33.438Z,75.40
2022-11-04T17:18:02.957Z,77.10
2022-11-04T17:20:31.917Z,75.40
2022-11-04T17:23:00.476Z,76.80
2022-11-04T17:25:31.154Z,75.50
2022-11-04T17:27:59.182Z,75.80
2022-11-04T17:30:27.250Z,75.80
2022-11-04T17:32:55.780Z,76.20
2022-11-04T17:35:25.079Z,77.10
2022-11-04T17:37:54.253Z,75.80
2022-11-04T17:40:24.160Z,75.80
2022-11-04T17:43:12.163Z,77.40
2022-11-04T17:45:41.099Z,76.30
2022-11-04T17:48:10.619Z,75.80
2022-11-04T17:50:42.128Z,75.80
2022-11-04T17:53:10.745Z,75.20
2022-11-04T17:55:40.988Z,76.60
2022-11-04T17:58:09.550Z,75.80
2022-11-04T18:00:37.537Z,75.40
2022-11-04T18:03:32.600Z,75.40
2022-11-04T18:06:02.014Z,75.50
2022-11-04T18:08:30.481Z,76.20
2022-11-04T18:10:59.297Z,75.60
2022-11-04T18:13:26.644Z,75.50
2022-11-04T18:15:54.634Z,75.50
2022-11-04T18:18:22.669Z,75.40
2022-11-04T18:20:55.227Z,76.40
2022-11-04T18:23:24.834Z,75.40
2022-11-04T18:25:53.263Z,75.80
2022-11-04T18:28:21.505Z,75.40
2022-11-04T18:30:50.007Z,75.30
2022-11-04T18:33:17.989Z,75.20
2022-11-04T18:35:46.454Z,75.20
2022-11-04T18:38:17.428Z,75.60
2022-11-04T18:40:46.783Z,75.60
2022-11-04T18:43:15.773Z,75.50
2022-11-04T18:45:44.181Z,75.50
2022-11-04T18:48:12.706Z,75.60
2022-11-04T18:50:40.868Z,76.30
2022-11-04T18:53:09.543Z,76.50
2022-11-04T18:55:37.737Z,76.00
2022-11-04T18:58:07.715Z,76.60
2022-11-04T19:00:37.432Z,76.80
2022-11-04T19:03:05.893Z,77.60
2022-11-04T19:05:33.863Z,77.00
2022-11-04T19:08:02.303Z,77.20
2022-11-04T19:10:30.733Z,76.90
2022-11-04T19:13:16.272Z,77.10
2022-11-04T19:15:54.599Z,78.00
2022-11-04T19:18:22.828Z,77.30
2022-11-04T19:20:51.215Z,77.10
2022-11-04T19:23:19.137Z,77.00
2022-11-04T19:25:49.456Z,76.90
2022-11-04T19:28:37.105Z,77.70
2022-11-04T19:31:13.243Z,76.30
2022-11-04T19:33:41.897Z,76.70
2022-11-04T19:36:11.431Z,76.60
2022-11-04T19:38:44.189Z,77.10
2022-11-04T19:41:40.781Z,78.10
2022-11-04T19:44:10.775Z,76.70
2022-11-04T19:46:40.397Z,77.70
2022-11-04T19:49:10.000Z,76.50
2022-11-04T19:51:52.159Z,76.70
2022-11-04T19:54:20.612Z,78.50
2022-11-04T19:56:49.028Z,77.60
2022-11-04T19:59:39.962Z,77.50
2022-11-04T20:02:10.700Z,77.10
2022-11-04T20:04:38.808Z,77.30
2022-11-04T20:07:07.306Z,76.70
2022-11-04T20:09:35.217Z,77.80
2022-11-04T20:12:21.040Z,77.20
2022-11-04T20:14:51.422Z,77.00
2022-11-04T20:17:20.708Z,76.80
2022-11-04T20:19:48.691Z,76.90
2022-11-04T20:22:16.880Z,76.50
2022-11-04T20:24:48.705Z,76.60
2022-11-04T20:27:16.723Z,77.20
2022-11-04T20:29:47.165Z,77.10
2022-11-04T20:32:15.162Z,76.70
2022-11-04T20:34:45.348Z,76.80
2022-11-04T20:37:13.357Z,76.50
2022-11-04T20:39:41.658Z,76.80
2022-11-04T20:42:10.062Z,77.10
2022-11-04T20:44:38.829Z,77.60
2022-11-04T20:47:06.788Z,78.20
2022-11-04T20:49:38.817Z,77.80
2022-11-04T20:52:08.219Z,77.60
2022-11-04T20:54:36.675Z,78.20
2022-11-04T20:57:12.097Z,77.80
2022-11-04T20:59:40.698Z,78.00
2022-11-04T21:02:09.215Z,77.50
2022-11-04T21:04:37.943Z,78.00
2022-11-04T21:07:08.411Z,77.80
2022-11-04T21:10:00.026Z,78.10
2022-11-04T21:12:31.605Z,78.10
2022-11-04T21:15:00.009Z,78.00
2022-11-04T21:17:37.447Z,78.40
2022-11-04T21:20:09.409Z,77.70
2022-11-04T21:22:38.984Z,77.90
2022-11-04T21:25:07.535Z,78.80
2022-11-04T21:27:35.527Z,77.80
2022-11-04T21:30:04.058Z,77.80
2022-11-04T21:32:32.096Z,79.00
2022-11-04T21:35:00.953Z,77.80
2022-11-04T21:37:31.484Z,78.00
2022-11-04T21:40:03.359Z,78.00
2022-11-04T21:42:31.402Z,77.90
2022-11-04T21:45:05.272Z,78.40
2022-11-04T21:47:33.229Z,77.70
2022-11-04T21:50:01.781Z,78.10
2022-11-04T21:52:30.242Z,80.00
2022-11-04T21:54:58.284Z,78.40
2022-11-04T21:57:30.632Z,78.30
2022-11-04T21:59:59.074Z,79.60
2022-11-04T22:02:28.514Z,78.30
2022-11-04T22:05:02.370Z,79.10
2022-11-04T22:07:48.689Z,77.90
2022-11-04T22:10:17.344Z,78.90
2022-11-04T22:13:07.754Z,78.40
2022-11-04T22:15:53.360Z,79.10
2022-11-04T22:18:21.296Z,79.80
2022-11-04T22:20:49.291Z,78.80
2022-11-04T22:23:17.814Z,78.10
2022-11-04T22:25:49.896Z,78.40
2022-11-04T22:28:21.260Z,78.10
2022-11-04T22:30:50.094Z,78.60
2022-11-04T22:33:17.989Z,78.00
2022-11-04T22:35:46.546Z,78.00
2022-11-04T22:38:15.368Z,78.10
2022-11-04T22:40:49.672Z,80.80
2022-11-04T22:43:21.974Z,78.90
2022-11-04T22:45:50.401Z,78.20
2022-11-04T22:48:18.365Z,79.20
2022-11-04T22:51:01.563Z,78.50
2022-11-04T22:53:35.976Z,79.10
2022-11-04T22:56:05.221Z,78.50
2022-11-04T22:58:34.844Z,79.70
2022-11-04T23:01:05.635Z,78.70
2022-11-04T23:03:34.135Z,78.90
2022-11-04T23:06:03.914Z,79.10
2022-11-04T23:08:35.431Z,80.40
2022-11-04T23:11:24.985Z,80.00
2022-11-04T23:14:20.599Z,79.30
2022-11-04T23:17:08.632Z,79.50
2022-11-04T23:19:51.553Z,79.30
2022-11-04T23:22:37.572Z,79.50
2022-11-04T23:25:10.785Z,79.30
2022-11-04T23:27:58.974Z,79.40
2022-11-04T23:30:30.307Z,79.90
2022-11-04T23:33:08.789Z,79.80
2022-11-04T23:35:57.067Z,79.50
2022-11-04T23:39:00.175Z,79.20
2022-11-04T23:45:09.016Z,78.70
2022-11-04T23:47:57.412Z,79.40
2022-11-04T23:50:45.772Z,79.80
2022-11-04T23:53:33.405Z,81.50
2022-11-04T23:56:31.095Z,79.80
2022-11-04T23:59:16.574Z,79.80
